Time;durP1;ratioP1;P1;durP2;ratioP2;P2;SDS_P1;SDS_P2;PMS_P1;PMS_P2;Temp;Humidity;BMP_temperature;BMP_pressure;BME280_temperature;BME280_humidity;BME280_pressure;Samples;Min_cycle;Max_cycle;Signal;HPM_P1;HPM_P2
2021/12/21 00:00:55;;;;;;;8.52;3.78;;;3.00;99.90;;;;;;5010492;28;20034;-68
2021/12/21 00:03:21;;;;;;;8.38;4.65;;;3.00;99.90;;;;;;5012567;28;20534;-69
2021/12/21 00:05:47;;;;;;;8.45;3.75;;;3.00;99.90;;;;;;5011946;28;20124;-69
2021/12/21 00:08:15;;;;;;;9.73;2.97;;;2.90;99.90;;;;;;5013082;28;20120;-70
2021/12/21 00:10:44;;;;;;;9.50;3.70;;;2.90;99.90;;;;;;5007383;28;20511;-70
2021/12/21 00:14:11;;;;;;;10.07;3.67;;;2.80;99.90;;;;;;5014500;28;20254;-69
2021/12/21 00:19:04;;;;;;;13.98;4.15;;;2.90;99.90;;;;;;5013813;28;20045;-70
2021/12/21 00:24:10;;;;;;;7.57;3.30;;;2.90;99.90;;;;;;5013150;28;20458;-70
2021/12/21 00:26:37;;;;;;;11.45;3.88;;;2.80;99.90;;;;;;5013915;28;20026;-68
2021/12/21 00:29:03;;;;;;;8.13;3.75;;;2.80;99.90;;;;;;5011457;28;20131;-69
2021/12/21 00:31:34;;;;;;;9.15;3.90;;;2.70;99.90;;;;;;5013487;28;20029;-68
2021/12/21 00:34:01;;;;;;;5.60;3.35;;;2.70;99.90;;;;;;5011319;28;20037;-70
2021/12/21 00:36:29;;;;;;;8.65;3.50;;;2.70;99.90;;;;;;5013579;28;20087;-69
2021/12/21 00:38:57;;;;;;;9.45;3.47;;;2.80;99.90;;;;;;5011507;28;20125;-71
2021/12/21 00:41:24;;;;;;;13.25;3.80;;;2.80;99.90;;;;;;5013329;28;20030;-70
2021/12/21 00:43:51;;;;;;;8.82;3.90;;;2.70;99.90;;;;;;5013527;28;20065;-68
2021/12/21 00:46:17;;;;;;;7.18;4.25;;;2.80;99.90;;;;;;5012602;28;20033;-69
2021/12/21 00:48:50;;;;;;;9.77;3.70;;;2.70;99.90;;;;;;5013823;28;20064;-69
2021/12/21 00:51:17;;;;;;;8.50;3.30;;;2.70;99.90;;;;;;5011575;28;20349;-69
2021/12/21 00:53:44;;;;;;;6.30;3.72;;;2.60;99.90;;;;;;5012060;28;20026;-68
2021/12/21 00:56:10;;;;;;;8.50;3.35;;;2.70;99.90;;;;;;5012043;28;20029;-69
2021/12/21 00:58:35;;;;;;;7.90;3.67;;;2.70;99.90;;;;;;5013214;28;20030;-73
2021/12/21 01:01:05;;;;;;;9.20;3.53;;;2.60;99.90;;;;;;5015479;28;20359;-70
2021/12/21 01:03:31;;;;;;;15.63;3.60;;;2.60;99.90;;;;;;5016430;28;20432;-72
2021/12/21 01:06:11;;;;;;;14.00;4.32;;;2.70;99.90;;;;;;5015731;28;20033;-71
2021/12/21 01:08:54;;;;;;;15.20;3.55;;;2.60;99.90;;;;;;5016164;28;20045;-72
2021/12/21 01:11:26;;;;;;;10.38;4.53;;;2.60;99.90;;;;;;5014238;28;20073;-69
2021/12/21 01:16:48;;;;;;;11.70;4.13;;;2.60;99.90;;;;;;5013053;28;20064;-68
2021/12/21 01:35:52;;;;;;;9.10;3.45;;;2.50;99.90;;;;;;4971879;28;20041;-69
2021/12/21 01:38:27;;;;;;;9.63;3.40;;;2.50;99.90;;;;;;4970833;28;20047;-70
2021/12/21 01:41:23;;;;;;;7.47;3.30;;;2.40;99.90;;;;;;4971678;28;20118;-68
2021/12/21 01:44:09;;;;;;;11.90;3.67;;;2.40;99.90;;;;;;4971458;28;20129;-68
2021/12/21 01:49:41;;;;;;;6.60;3.38;;;2.30;99.90;;;;;;4975085;28;20511;-69
2021/12/21 01:52:12;;;;;;;10.38;3.88;;;2.30;99.90;;;;;;4976212;28;20031;-68
2021/12/21 01:54:38;;;;;;;9.57;3.75;;;2.30;99.90;;;;;;4962811;28;20035;-68
2021/12/21 01:57:06;;;;;;;8.07;3.60;;;2.20;99.90;;;;;;4975223;28;20046;-70
2021/12/21 01:59:33;;;;;;;6.85;3.58;;;2.20;99.90;;;;;;5014870;28;20100;-70
2021/12/21 02:01:59;;;;;;;9.20;3.70;;;2.20;99.90;;;;;;5014442;28;20121;-69
2021/12/21 02:04:25;;;;;;;5.53;3.03;;;2.10;99.90;;;;;;5016288;28;20535;-69
2021/12/21 02:06:52;;;;;;;12.38;4.05;;;2.10;99.90;;;;;;5016664;28;20073;-70
2021/12/21 02:09:19;;;;;;;12.20;3.92;;;2.10;99.90;;;;;;5016446;28;20487;-69
2021/12/21 02:11:46;;;;;;;11.77;3.60;;;2.10;99.90;;;;;;5016585;28;20034;-68
2021/12/21 02:14:13;;;;;;;6.80;3.90;;;2.20;99.90;;;;;;5014355;28;20030;-68
2021/12/21 02:19:52;;;;;;;11.68;5.22;;;2.20;99.90;;;;;;5015442;28;20032;-68
2021/12/21 02:22:17;;;;;;;10.77;4.28;;;2.10;99.90;;;;;;5015149;28;20073;-68
2021/12/21 02:24:55;;;;;;;11.40;4.07;;;2.20;99.90;;;;;;5016083;28;20022;-70
2021/12/21 02:27:30;;;;;;;7.57;3.88;;;2.20;99.90;;;;;;5014178;28;20510;-69
2021/12/21 02:29:56;;;;;;;8.55;4.05;;;2.20;99.90;;;;;;5016150;28;20054;-68
2021/12/21 02:32:22;;;;;;;9.07;3.45;;;2.20;99.90;;;;;;5015462;28;20383;-69
2021/12/21 02:34:49;;;;;;;6.60;4.10;;;2.10;99.90;;;;;;5016196;28;20069;-69
2021/12/21 02:37:15;;;;;;;9.45;3.75;;;2.10;99.90;;;;;;5015406;28;20456;-69
2021/12/21 02:39:41;;;;;;;8.68;4.55;;;2.00;99.90;;;;;;5019593;28;20133;-71
2021/12/21 02:42:07;;;;;;;8.68;3.97;;;2.00;99.90;;;;;;5018447;28;20048;-68
2021/12/21 02:44:34;;;;;;;9.60;4.07;;;2.10;99.90;;;;;;5015605;28;20447;-69
2021/12/21 02:47:00;;;;;;;7.63;3.55;;;2.10;99.90;;;;;;5017363;28;20037;-73
2021/12/21 02:49:25;;;;;;;12.93;5.13;;;2.00;99.90;;;;;;5017919;28;20026;-68
2021/12/21 02:51:51;;;;;;;9.32;4.75;;;2.00;99.90;;;;;;5016548;28;20070;-69
2021/12/21 02:54:19;;;;;;;7.85;4.93;;;2.00;99.90;;;;;;5017066;28;20050;-67
2021/12/21 02:56:45;;;;;;;11.23;4.25;;;2.00;99.90;;;;;;5019543;28;20051;-69
2021/12/21 02:59:11;;;;;;;9.27;3.70;;;2.00;99.90;;;;;;5014774;28;20022;-68
2021/12/21 03:01:37;;;;;;;14.48;4.10;;;2.00;99.90;;;;;;5014141;28;20038;-69
2021/12/21 03:04:04;;;;;;;15.27;4.55;;;2.00;99.90;;;;;;5013423;28;20065;-68
2021/12/21 03:08:57;;;;;;;8.88;4.72;;;2.00;99.90;;;;;;5015179;28;20376;-69
2021/12/21 03:11:47;;;;;;;10.27;5.03;;;2.00;99.90;;;;;;5014293;28;20076;-69
2021/12/21 03:14:11;;;;;;;11.45;4.30;;;2.00;99.90;;;;;;5013855;28;20038;-69
2021/12/21 03:16:38;;;;;;;9.20;5.07;;;1.90;99.90;;;;;;5013940;28;20030;-69
2021/12/21 03:19:09;;;;;;;13.70;4.90;;;1.80;99.90;;;;;;5014570;28;20022;-69
2021/12/21 03:21:36;;;;;;;9.13;4.45;;;1.80;99.90;;;;;;5016258;28;20451;-69
2021/12/21 03:24:04;;;;;;;11.32;3.80;;;1.90;99.90;;;;;;5014441;28;20056;-69
2021/12/21 03:26:30;;;;;;;8.27;4.18;;;1.80;99.90;;;;;;5014890;28;20485;-68
2021/12/21 03:28:56;;;;;;;10.73;5.18;;;1.90;99.90;;;;;;5014501;28;20097;-70
2021/12/21 03:31:22;;;;;;;8.52;4.10;;;1.90;99.90;;;;;;5013941;28;20061;-68
2021/12/21 03:33:48;;;;;;;10.88;5.18;;;1.80;99.90;;;;;;5015051;28;20044;-70
2021/12/21 03:36:16;;;;;;;9.65;5.30;;;1.70;99.90;;;;;;5013088;28;20446;-70
2021/12/21 03:38:49;;;;;;;11.25;4.90;;;1.80;99.90;;;;;;5016045;28;20368;-68
2021/12/21 03:41:17;;;;;;;11.73;4.88;;;1.80;99.90;;;;;;5013714;28;20033;-69
2021/12/21 03:43:42;;;;;;;12.25;4.82;;;1.70;99.90;;;;;;5013019;28;20045;-70
2021/12/21 03:46:13;;;;;;;14.25;4.25;;;1.60;99.90;;;;;;5013424;28;20030;-68
2021/12/21 03:48:42;;;;;;;12.70;4.95;;;1.60;99.90;;;;;;5012784;28;20025;-69
2021/12/21 03:51:08;;;;;;;9.95;5.50;;;1.60;99.90;;;;;;5014055;28;20065;-68
2021/12/21 03:53:34;;;;;;;9.82;4.75;;;1.60;99.90;;;;;;5013858;28;20033;-68
2021/12/21 03:56:18;;;;;;;11.98;4.88;;;1.60;99.90;;;;;;5012689;28;20403;-69
2021/12/21 03:58:44;;;;;;;6.63;4.13;;;1.60;99.90;;;;;;5014216;28;20460;-69
2021/12/21 04:01:10;;;;;;;10.48;4.63;;;1.50;99.90;;;;;;5014663;28;20033;-69
2021/12/21 04:03:36;;;;;;;9.07;5.07;;;1.50;99.90;;;;;;5015293;28;20064;-69
2021/12/21 04:06:02;;;;;;;10.32;5.00;;;1.50;99.90;;;;;;5013591;28;20120;-69
2021/12/21 04:08:28;;;;;;;10.98;4.90;;;1.40;99.90;;;;;;5012637;28;20595;-69
2021/12/21 04:10:54;;;;;;;14.70;6.20;;;1.40;99.90;;;;;;5013180;28;20058;-68
2021/12/21 04:13:19;;;;;;;14.88;5.72;;;1.40;99.90;;;;;;5014321;28;20033;-66
2021/12/21 04:15:49;;;;;;;9.77;5.55;;;1.40;99.90;;;;;;5014351;28;20052;-70
2021/12/21 04:18:18;;;;;;;12.55;5.68;;;1.30;99.90;;;;;;5014152;28;20062;-69
2021/12/21 04:20:44;;;;;;;10.73;5.43;;;1.40;99.90;;;;;;5017942;28;20029;-71
2021/12/21 04:23:10;;;;;;;14.90;6.32;;;1.40;99.90;;;;;;5015526;28;20079;-69
2021/12/21 04:25:36;;;;;;;11.00;4.15;;;1.20;99.90;;;;;;5017044;28;20097;-69
2021/12/21 04:28:02;;;;;;;9.95;4.72;;;1.30;99.90;;;;;;5013786;28;20120;-69
2021/12/21 04:30:28;;;;;;;14.88;6.50;;;1.30;99.90;;;;;;5015206;28;20033;-70
2021/12/21 04:32:54;;;;;;;15.30;5.50;;;1.30;99.90;;;;;;5013798;28;20120;-69
2021/12/21 04:35:21;;;;;;;12.93;5.55;;;1.40;99.90;;;;;;5014145;28;20073;-71
2021/12/21 04:37:53;;;;;;;11.32;5.95;;;1.30;99.90;;;;;;5014190;28;20034;-71
2021/12/21 04:40:23;;;;;;;10.32;6.43;;;1.20;99.90;;;;;;5014981;28;20033;-69
2021/12/21 04:42:48;;;;;;;9.63;4.93;;;1.10;99.90;;;;;;5017177;28;20487;-69
2021/12/21 04:45:14;;;;;;;13.48;5.32;;;1.10;99.90;;;;;;5016653;28;20030;-71
2021/12/21 04:47:40;;;;;;;10.98;5.47;;;1.20;99.90;;;;;;5016772;28;20112;-71
2021/12/21 04:50:06;;;;;;;16.85;6.47;;;1.10;99.90;;;;;;5018038;28;20060;-70
2021/12/21 04:52:32;;;;;;;11.70;4.75;;;1.10;99.90;;;;;;5015953;28;20026;-68
2021/12/21 04:54:57;;;;;;;12.93;5.68;;;1.10;99.90;;;;;;5013075;28;20052;-69
2021/12/21 04:57:26;;;;;;;14.55;6.28;;;1.10;99.90;;;;;;5013731;28;20025;-69
2021/12/21 04:59:52;;;;;;;13.50;6.03;;;1.10;99.90;;;;;;5012931;28;20030;-69
2021/12/21 05:02:18;;;;;;;14.32;6.22;;;1.10;99.90;;;;;;5014186;28;20526;-68
2021/12/21 05:04:43;;;;;;;11.35;5.30;;;1.00;99.90;;;;;;5013884;28;20029;-68
2021/12/21 05:07:09;;;;;;;11.18;5.72;;;1.00;99.90;;;;;;5014088;28;20018;-70
2021/12/21 05:09:42;;;;;;;9.88;5.40;;;1.10;99.90;;;;;;5016156;28;20049;-69
2021/12/21 05:12:11;;;;;;;12.45;5.22;;;1.10;99.90;;;;;;5015476;28;20030;-73
2021/12/21 05:14:36;;;;;;;17.67;6.57;;;1.10;99.90;;;;;;5015540;28;20029;-70
2021/12/21 05:17:02;;;;;;;12.88;5.95;;;1.10;99.90;;;;;;5014579;28;20570;-69
2021/12/21 05:19:28;;;;;;;14.23;5.40;;;1.10;99.90;;;;;;5014051;28;20891;-68
2021/12/21 05:21:54;;;;;;;13.23;5.93;;;1.00;99.90;;;;;;5014736;28;20030;-68
2021/12/21 05:24:20;;;;;;;15.23;6.18;;;1.10;99.90;;;;;;5015900;28;20030;-68
2021/12/21 05:26:46;;;;;;;12.70;5.85;;;1.00;99.90;;;;;;5018166;28;20029;-69
2021/12/21 05:29:12;;;;;;;13.00;6.20;;;1.10;99.90;;;;;;5016220;28;20050;-69
2021/12/21 05:31:38;;;;;;;15.27;6.68;;;1.20;99.90;;;;;;5018589;28;20038;-70
2021/12/21 05:34:03;;;;;;;10.38;5.57;;;1.30;99.90;;;;;;5016816;28;20038;-69
2021/12/21 05:36:29;;;;;;;11.85;5.80;;;1.20;99.90;;;;;;5018340;28;20079;-70
2021/12/21 05:39:00;;;;;;;9.48;5.00;;;1.10;99.90;;;;;;5019676;28;20034;-69
2021/12/21 05:41:45;;;;;;;14.93;5.87;;;1.10;99.90;;;;;;5018148;28;20022;-69
2021/12/21 05:44:11;;;;;;;13.35;5.75;;;1.20;99.90;;;;;;5020135;28;20116;-71
2021/12/21 05:46:37;;;;;;;10.95;5.97;;;1.10;99.90;;;;;;5019631;28;20163;-69
2021/12/21 05:49:03;;;;;;;12.93;5.88;;;1.00;99.90;;;;;;5018684;28;20022;-69
2021/12/21 05:51:28;;;;;;;14.25;6.70;;;0.90;99.90;;;;;;5018588;28;20033;-69
2021/12/21 05:53:54;;;;;;;10.38;6.57;;;0.90;99.90;;;;;;5018181;28;20037;-70
2021/12/21 05:56:20;;;;;;;20.55;7.55;;;0.80;99.90;;;;;;5018532;28;20030;-69
2021/12/21 05:58:45;;;;;;;11.35;6.30;;;0.80;99.90;;;;;;5021665;28;20030;-69
2021/12/21 06:01:11;;;;;;;12.95;5.68;;;0.90;99.90;;;;;;5021338;28;20033;-72
2021/12/21 06:03:37;;;;;;;11.10;5.88;;;0.90;99.90;;;;;;5018179;28;20040;-69
2021/12/21 06:06:03;;;;;;;15.73;6.50;;;0.90;99.90;;;;;;5019366;28;20053;-70
2021/12/21 06:08:29;;;;;;;11.98;5.97;;;0.80;99.90;;;;;;5017199;28;20472;-70
2021/12/21 06:10:56;;;;;;;13.85;6.78;;;0.90;99.90;;;;;;5018045;28;20030;-70
2021/12/21 06:13:47;;;;;;;12.82;6.32;;;0.90;99.90;;;;;;5018616;28;20062;-69
2021/12/21 06:26:52;;;;;;;10.63;5.80;;;1.00;99.90;;;;;;5018884;28;20034;-69
2021/12/21 06:29:18;;;;;;;12.35;6.35;;;1.00;99.90;;;;;;5020370;28;20092;-71
2021/12/21 06:31:46;;;;;;;12.10;6.25;;;0.80;99.90;;;;;;5019489;28;20379;-69
2021/12/21 06:34:12;;;;;;;11.73;5.85;;;0.90;99.90;;;;;;5016660;28;20541;-70
2021/12/21 06:36:38;;;;;;;16.63;6.40;;;0.80;99.90;;;;;;5015040;28;20038;-70
2021/12/21 06:39:07;;;;;;;15.75;5.85;;;0.90;99.90;;;;;;5015740;28;20033;-70
2021/12/21 06:41:37;;;;;;;12.27;5.93;;;0.90;99.90;;;;;;5015544;28;20037;-69
2021/12/21 06:44:04;;;;;;;10.77;5.63;;;1.10;99.90;;;;;;5016751;28;20064;-72
2021/12/21 06:52:00;;;;;;;15.05;6.40;;;1.00;99.90;;;;;;5018880;28;20033;-70
2021/12/21 06:54:26;;;;;;;8.68;5.47;;;0.80;99.90;;;;;;5019317;28;20033;-72
2021/12/21 06:56:52;;;;;;;15.02;5.90;;;0.80;99.90;;;;;;5020527;28;20061;-70
2021/12/21 06:59:17;;;;;;;16.65;6.95;;;0.80;99.90;;;;;;5018308;28;20368;-72
2021/12/21 07:01:43;;;;;;;12.80;6.43;;;0.80;99.90;;;;;;5019510;28;20026;-71
2021/12/21 07:04:11;;;;;;;11.65;5.65;;;0.70;99.90;;;;;;5018289;28;20418;-70
2021/12/21 07:06:39;;;;;;;12.20;6.60;;;0.60;99.90;;;;;;5016500;28;20467;-69
2021/12/21 07:09:22;;;;;;;12.27;6.72;;;0.70;99.90;;;;;;5019043;28;20048;-70
2021/12/21 07:12:08;;;;;;;24.33;9.52;;;0.80;99.90;;;;;;5018115;28;20026;-70
2021/12/21 07:20:19;;;;;;;28.70;10.27;;;0.80;99.90;;;;;;5034801;28;20422;-69
2021/12/21 07:22:45;;;;;;;18.17;8.13;;;0.80;99.90;;;;;;5020956;28;20041;-70
2021/12/21 07:25:11;;;;;;;15.32;7.35;;;1.00;99.90;;;;;;5015059;28;20125;-70
2021/12/21 07:27:37;;;;;;;13.18;6.18;;;1.10;99.90;;;;;;5015074;28;20033;-70
2021/12/21 07:30:05;;;;;;;18.17;7.85;;;1.30;99.90;;;;;;5018596;28;20061;-69
2021/12/21 07:32:31;;;;;;;11.35;5.55;;;1.30;99.90;;;;;;5018735;28;20062;-72
2021/12/21 07:34:57;;;;;;;13.30;6.70;;;1.30;99.90;;;;;;5016564;28;20376;-70
2021/12/21 07:37:25;;;;;;;14.35;7.53;;;1.40;99.90;;;;;;5016810;28;20048;-71
2021/12/21 07:39:54;;;;;;;10.63;6.25;;;1.30;99.90;;;;;;5017089;28;20039;-71
2021/12/21 07:42:23;;;;;;;13.88;6.43;;;1.30;99.90;;;;;;5015529;28;20033;-72
2021/12/21 07:44:53;;;;;;;12.43;5.75;;;1.40;99.90;;;;;;5018220;28;20034;-71
2021/12/21 07:47:18;;;;;;;14.82;7.28;;;1.60;99.90;;;;;;5018809;28;20026;-70
2021/12/21 07:49:44;;;;;;;13.88;6.38;;;1.70;99.90;;;;;;5020313;28;20037;-69
2021/12/21 07:52:10;;;;;;;15.98;6.18;;;1.60;99.90;;;;;;5018786;28;20427;-71
2021/12/21 07:54:37;;;;;;;19.08;6.68;;;1.70;99.90;;;;;;5016784;28;20030;-73
2021/12/21 07:57:06;;;;;;;13.95;6.00;;;2.50;99.90;;;;;;5009038;28;20034;-71
2021/12/21 07:59:33;;;;;;;22.25;8.25;;;3.50;99.90;;;;;;5019966;28;20030;-70
2021/12/21 08:01:59;;;;;;;13.70;5.47;;;4.80;99.90;;;;;;5015014;28;20121;-71
2021/12/21 08:04:27;;;;;;;11.05;6.05;;;5.70;99.00;;;;;;5012455;28;20030;-71
2021/12/21 08:06:56;;;;;;;12.55;6.05;;;6.70;96.70;;;;;;5010517;28;20054;-71
2021/12/21 08:09:25;;;;;;;10.35;5.60;;;7.60;94.40;;;;;;4994453;28;20385;-72
2021/12/21 08:14:35;;;;;;;10.50;6.10;;;8.90;90.60;;;;;;4996700;28;20026;-70
2021/12/21 08:17:01;;;;;;;13.18;6.43;;;10.00;86.30;;;;;;5004926;28;20038;-71
2021/12/21 08:19:26;;;;;;;8.70;5.10;;;9.70;82.00;;;;;;5008510;28;20064;-70
2021/12/21 08:21:52;;;;;;;12.25;6.03;;;9.80;84.10;;;;;;5011227;28;20030;-70
2021/12/21 08:24:18;;;;;;;11.57;5.93;;;9.80;82.60;;;;;;5011505;28;20034;-70
2021/12/21 08:26:44;;;;;;;10.73;5.82;;;10.70;79.80;;;;;;5008823;28;20448;-70
2021/12/21 08:29:09;;;;;;;13.20;5.97;;;11.50;77.40;;;;;;5010821;28;20132;-71
2021/12/21 08:31:35;;;;;;;12.68;5.57;;;11.50;77.20;;;;;;5005235;28;20121;-70
2021/12/21 08:34:01;;;;;;;9.45;5.05;;;12.40;74.40;;;;;;4994644;28;20038;-70
2021/12/21 08:36:27;;;;;;;10.40;5.95;;;12.60;72.00;;;;;;5008823;28;20033;-71
2021/12/21 08:38:54;;;;;;;7.43;4.72;;;12.90;69.70;;;;;;5025539;28;20042;-72
2021/12/21 08:41:22;;;;;;;8.60;5.40;;;13.00;69.20;;;;;;5010570;28;20050;-70
2021/12/21 08:43:48;;;;;;;7.20;4.80;;;13.40;67.90;;;;;;5010578;28;20037;-70
2021/12/21 08:46:13;;;;;;;12.35;5.10;;;13.60;66.40;;;;;;5007326;28;20417;-70
2021/12/21 08:48:39;;;;;;;8.00;5.00;;;13.90;65.60;;;;;;5010319;28;20087;-71
2021/12/21 08:51:06;;;;;;;9.13;5.13;;;14.30;63.90;;;;;;5009315;28;20072;-68
2021/12/21 08:53:32;;;;;;;7.95;4.70;;;14.60;63.10;;;;;;5008863;28;20030;-71
2021/12/21 08:55:59;;;;;;;9.23;4.15;;;14.90;67.10;;;;;;5011650;28;20058;-77
2021/12/21 08:58:25;;;;;;;6.50;3.83;;;15.30;94.90;;;;;;5009921;28;20030;-76
2021/12/21 09:00:51;;;;;;;10.57;5.72;;;15.60;91.70;;;;;;5010381;28;20402;-68
2021/12/21 09:03:18;;;;;;;10.90;4.88;;;15.90;64.00;;;;;;5010950;28;20044;-69
2021/12/21 09:05:44;;;;;;;7.85;5.20;;;15.70;60.50;;;;;;5008863;28;20048;-70
2021/12/21 09:08:12;;;;;;;8.57;5.65;;;14.90;60.10;;;;;;5009796;28;20113;-69
2021/12/21 09:10:40;;;;;;;9.05;4.60;;;15.10;60.00;;;;;;5010160;28;20033;-68
2021/12/21 09:13:07;;;;;;;9.57;4.60;;;15.30;59.30;;;;;;5010521;28;20037;-68
2021/12/21 09:15:32;;;;;;;8.55;4.25;;;15.40;58.80;;;;;;5012505;28;20113;-69
2021/12/21 09:17:58;;;;;;;7.85;5.32;;;15.90;58.50;;;;;;5011844;28;20113;-68
2021/12/21 09:20:26;;;;;;;10.45;4.70;;;15.70;58.30;;;;;;5011678;28;20104;-70
2021/12/21 09:22:53;;;;;;;7.40;5.55;;;15.70;58.10;;;;;;5010694;28;20034;-70
2021/12/21 09:25:20;;;;;;;10.63;4.53;;;15.80;58.20;;;;;;5009920;28;20065;-64
2021/12/21 09:27:45;;;;;;;7.78;5.13;;;15.80;60.70;;;;;;5011215;28;20495;-64
2021/12/21 09:30:14;;;;;;;10.68;5.18;;;15.60;58.60;;;;;;5011506;28;20041;-71
2021/12/21 09:32:40;;;;;;;11.77;5.15;;;15.70;58.10;;;;;;5011918;28;20033;-69
2021/12/21 09:35:07;;;;;;;15.25;4.90;;;15.40;57.90;;;;;;5012975;28;20034;-73
2021/12/21 09:37:32;;;;;;;14.48;4.80;;;15.40;58.00;;;;;;5012564;28;20030;-70
2021/12/21 09:39:59;;;;;;;10.38;4.97;;;14.70;59.10;;;;;;5012399;28;20038;-71
2021/12/21 09:42:28;;;;;;;7.45;4.18;;;14.60;58.40;;;;;;5011799;28;20029;-78
2021/12/21 09:44:55;;;;;;;13.38;5.10;;;14.50;58.70;;;;;;5011580;28;20460;-69
2021/12/21 09:47:21;;;;;;;11.27;4.82;;;14.90;59.20;;;;;;5007657;28;20036;-70
2021/12/21 09:49:48;;;;;;;11.07;4.70;;;15.00;58.60;;;;;;5011984;28;20113;-71
2021/12/21 09:52:18;;;;;;;12.35;4.53;;;15.30;58.70;;;;;;5012714;28;20093;-72
2021/12/21 09:54:45;;;;;;;8.75;4.20;;;15.40;58.40;;;;;;5011219;28;20026;-72
2021/12/21 09:57:13;;;;;;;10.85;4.43;;;15.50;57.60;;;;;;5012096;28;20034;-69
2021/12/21 09:59:39;;;;;;;9.13;4.80;;;15.10;58.80;;;;;;5014244;28;20112;-76
2021/12/21 10:02:04;;;;;;;9.13;4.35;;;15.30;57.90;;;;;;5021411;28;20026;-70
2021/12/21 10:04:30;;;;;;;7.30;4.00;;;15.10;57.30;;;;;;5017167;28;20283;-70
2021/12/21 10:06:57;;;;;;;7.25;4.10;;;14.90;58.80;;;;;;5012757;28;20042;-70
2021/12/21 10:09:33;;;;;;;10.10;4.35;;;14.60;59.30;;;;;;5014377;28;20464;-69
2021/12/21 10:11:59;;;;;;;28.60;6.72;;;15.50;58.90;;;;;;5015601;28;20018;-67
2021/12/21 10:14:26;;;;;;;9.80;4.50;;;15.70;60.70;;;;;;5014157;28;20037;-69
2021/12/21 10:17:07;;;;;;;15.02;5.35;;;16.10;57.70;;;;;;5008863;28;20108;-70
2021/12/21 10:19:33;;;;;;;9.45;4.70;;;16.10;57.00;;;;;;5014819;28;20084;-70
2021/12/21 10:22:13;;;;;;;8.75;4.78;;;16.30;56.70;;;;;;5014061;28;20711;-72
2021/12/21 10:24:49;;;;;;;8.13;4.75;;;16.30;56.50;;;;;;5011493;28;20410;-70
2021/12/21 10:27:18;;;;;;;7.13;3.45;;;15.90;56.00;;;;;;5012769;28;20053;-69
2021/12/21 10:29:53;;;;;;;6.85;4.00;;;14.50;58.20;;;;;;5014524;28;20503;-69
2021/12/21 10:32:22;;;;;;;7.13;3.40;;;13.20;60.10;;;;;;5014339;28;20034;-69
2021/12/21 10:34:58;;;;;;;6.30;4.13;;;13.80;61.00;;;;;;5016383;28;20099;-72
2021/12/21 10:37:27;;;;;;;9.93;4.03;;;15.10;58.40;;;;;;5015966;28;20530;-69
2021/12/21 10:40:24;;;;;;;8.63;3.70;;;15.60;57.60;;;;;;5009667;28;20042;-68
2021/12/21 10:42:59;;;;;;;9.73;4.07;;;16.30;56.50;;;;;;4994511;28;20046;-70
2021/12/21 10:45:35;;;;;;;9.27;4.15;;;15.90;56.90;;;;;;5009115;28;20037;-69
2021/12/21 10:48:04;;;;;;;8.80;3.58;;;15.50;56.70;;;;;;5011349;28;20030;-67
2021/12/21 10:50:32;;;;;;;5.97;3.70;;;16.00;56.50;;;;;;5009360;28;20080;-71
2021/12/21 10:52:58;;;;;;;11.13;3.95;;;15.30;56.90;;;;;;5004798;28;20038;-69
2021/12/21 10:55:27;;;;;;;7.40;3.78;;;14.70;57.90;;;;;;5000706;28;20029;-68
2021/12/21 10:58:17;;;;;;;8.40;3.95;;;15.40;57.80;;;;;;5010099;28;20026;-68
2021/12/21 11:00:52;;;;;;;8.73;3.65;;;15.40;57.20;;;;;;5004538;28;20029;-68
2021/12/21 11:03:39;;;;;;;3.80;3.10;;;16.10;56.10;;;;;;5012592;28;20042;-67
2021/12/21 11:06:11;;;;;;;6.38;3.60;;;16.20;56.20;;;;;;5011241;28;20030;-68
2021/12/21 11:08:39;;;;;;;10.52;4.05;;;16.80;55.90;;;;;;5009460;28;20030;-68
2021/12/21 11:11:10;;;;;;;7.43;3.63;;;17.20;55.00;;;;;;5010085;28;20125;-67
2021/12/21 11:13:37;;;;;;;12.13;4.55;;;17.00;54.80;;;;;;5010777;28;20034;-67
2021/12/21 11:16:07;;;;;;;7.75;3.67;;;16.00;55.20;;;;;;5013827;28;20096;-67
2021/12/21 11:18:37;;;;;;;11.00;3.97;;;16.80;56.00;;;;;;5011077;28;20026;-68
2021/12/21 11:21:06;;;;;;;10.32;4.97;;;16.70;55.10;;;;;;5012117;28;20041;-69
2021/12/21 11:23:33;;;;;;;8.52;4.75;;;15.50;56.20;;;;;;5012600;28;20029;-69
2021/12/21 11:26:00;;;;;;;7.10;4.18;;;15.60;57.50;;;;;;5014655;28;20026;-71
2021/12/21 11:28:35;;;;;;;9.73;4.35;;;15.60;58.00;;;;;;5002875;28;20042;-69
2021/12/21 11:31:03;;;;;;;9.35;4.50;;;16.60;56.30;;;;;;5013274;28;20065;-66
2021/12/21 11:33:35;;;;;;;6.75;3.88;;;17.40;55.30;;;;;;5010647;28;20100;-68
2021/12/21 11:38:47;;;;;;;7.45;3.88;;;17.30;55.90;;;;;;5011625;28;20139;-70
2021/12/21 11:41:13;;;;;;;13.25;4.53;;;17.50;63.20;;;;;;5011041;28;20222;-70
2021/12/21 11:44:03;;;;;;;11.55;3.78;;;17.50;71.80;;;;;;5009922;28;20068;-70
2021/12/21 11:46:39;;;;;;;7.55;3.60;;;18.00;53.60;;;;;;5010723;28;20128;-70
2021/12/21 11:49:16;;;;;;;5.90;3.20;;;16.60;55.40;;;;;;5011168;28;20026;-68
2021/12/21 11:51:42;;;;;;;5.70;3.22;;;16.50;54.80;;;;;;5009102;28;20029;-69
2021/12/21 11:54:22;;;;;;;11.35;3.13;;;15.40;56.70;;;;;;5008838;28;20037;-63
2021/12/21 11:56:47;;;;;;;5.68;3.65;;;15.80;60.20;;;;;;5007275;28;20445;-63
2021/12/21 11:59:21;;;;;;;8.40;3.67;;;16.10;63.00;;;;;;5009193;28;20096;-65
2021/12/21 12:01:47;;;;;;;6.55;3.47;;;17.30;59.60;;;;;;5009171;28;20497;-65
2021/12/21 12:04:13;;;;;;;8.23;3.58;;;17.40;59.00;;;;;;5009953;28;20034;-65
2021/12/21 12:06:48;;;;;;;7.10;3.17;;;18.00;56.70;;;;;;5008893;28;20136;-65
2021/12/21 12:09:34;;;;;;;17.35;3.63;;;18.10;59.70;;;;;;5010017;28;20336;-68
2021/12/21 12:12:18;;;;;;;8.85;4.38;;;18.90;60.00;;;;;;5008725;28;20144;-69
2021/12/21 12:14:47;;;;;;;11.52;4.68;;;19.10;75.40;;;;;;5010842;28;20030;-69
2021/12/21 12:17:22;;;;;;;8.07;3.70;;;19.20;57.30;;;;;;5008786;28;20030;-70
2021/12/21 12:19:58;;;;;;;6.95;3.75;;;19.40;53.20;;;;;;5008691;28;20038;-69
2021/12/21 12:22:46;;;;;;;9.65;3.70;;;20.00;57.10;;;;;;5008546;28;20034;-69
2021/12/21 12:25:21;;;;;;;8.57;4.20;;;20.10;59.10;;;;;;4986494;28;20065;-69
2021/12/21 12:27:49;;;;;;;9.52;4.00;;;19.50;58.60;;;;;;5003918;28;20383;-69
2021/12/21 12:30:18;;;;;;;9.10;4.13;;;19.80;58.40;;;;;;5010159;28;20049;-69
2021/12/21 12:32:52;;;;;;;13.40;4.25;;;19.90;57.60;;;;;;5008454;28;20105;-69
2021/12/21 12:35:30;;;;;;;4.80;2.92;;;20.20;58.80;;;;;;4992033;28;20478;-69
2021/12/21 12:38:02;;;;;;;6.70;3.10;;;19.10;67.00;;;;;;4990497;28;20042;-69
2021/12/21 12:40:43;;;;;;;5.90;3.53;;;18.80;66.40;;;;;;4989907;28;20038;-68
2021/12/21 12:43:21;;;;;;;4.80;3.00;;;18.30;66.00;;;;;;4996899;28;20034;-69
2021/12/21 12:45:52;;;;;;;4.57;2.28;;;17.20;65.20;;;;;;5008951;28;20380;-70
2021/12/21 12:48:30;;;;;;;4.68;2.70;;;17.00;65.20;;;;;;5009582;28;20141;-69
2021/12/21 12:51:04;;;;;;;7.70;3.08;;;16.60;64.50;;;;;;5010007;28;20038;-70
2021/12/21 12:53:40;;;;;;;7.25;2.85;;;18.60;63.20;;;;;;5011136;28;20441;-70
2021/12/21 12:56:07;;;;;;;33.65;4.80;;;19.60;61.90;;;;;;5009995;28;20037;-68
2021/12/21 12:58:35;;;;;;;9.55;3.75;;;20.40;63.80;;;;;;5005054;28;20036;-69
2021/12/21 13:01:25;;;;;;;6.65;2.72;;;20.50;60.30;;;;;;4993330;28;20042;-69
2021/12/21 13:03:53;;;;;;;6.25;3.13;;;19.50;60.60;;;;;;4993361;28;20023;-70
2021/12/21 13:06:33;;;;;;;5.93;2.42;;;19.10;70.30;;;;;;5001926;28;20060;-71
2021/12/21 13:09:00;;;;;;;5.40;2.50;;;20.10;61.30;;;;;;5004765;28;20038;-69
2021/12/21 13:11:28;;;;;;;4.40;2.45;;;18.80;61.60;;;;;;4991995;28;20030;-68
2021/12/21 13:13:54;;;;;;;5.30;3.00;;;19.10;61.80;;;;;;5008346;28;20489;-68
2021/12/21 13:16:23;;;;;;;5.38;2.50;;;20.60;62.30;;;;;;5005435;28;20030;-68
2021/12/21 13:18:52;;;;;;;4.30;2.17;;;20.80;52.70;;;;;;5006703;28;20045;-69
2021/12/21 13:21:29;;;;;;;8.55;2.67;;;19.30;56.80;;;;;;4995381;28;20066;-68
2021/12/21 13:24:02;;;;;;;3.78;1.80;;;19.30;55.70;;;;;;5008429;28;20048;-68
2021/12/21 13:26:34;;;;;;;6.90;2.85;;;19.70;55.30;;;;;;5009726;28;20089;-68
2021/12/21 13:29:00;;;;;;;5.97;2.65;;;19.00;55.80;;;;;;5007823;28;20396;-68
2021/12/21 13:31:27;;;;;;;7.28;3.03;;;20.80;55.40;;;;;;5009992;28;20089;-67
2021/12/21 13:33:56;;;;;;;5.35;2.53;;;21.00;63.30;;;;;;5007839;28;20042;-67
2021/12/21 13:36:45;;;;;;;2.70;2.13;;;21.30;65.90;;;;;;5009751;28;20026;-67
2021/12/21 13:39:33;;;;;;;6.13;2.75;;;21.40;69.10;;;;;;5004245;28;20030;-66
2021/12/21 13:42:10;;;;;;;6.95;3.22;;;22.40;51.40;;;;;;4998713;28;20183;-67
2021/12/21 13:44:41;;;;;;;6.75;3.35;;;22.90;45.40;;;;;;5014598;28;20538;-69
2021/12/21 13:47:30;;;;;;;4.27;2.60;;;22.10;45.00;;;;;;5008144;28;20077;-67
2021/12/21 13:50:04;;;;;;;4.38;2.17;;;23.20;44.40;;;;;;5010707;28;20479;-69
2021/12/21 13:52:33;;;;;;;8.27;2.10;;;23.50;43.20;;;;;;5011770;28;20428;-68
2021/12/21 13:55:00;;;;;;;3.90;2.20;;;23.60;43.10;;;;;;5010601;28;20377;-71
2021/12/21 13:57:27;;;;;;;5.97;2.97;;;23.40;43.00;;;;;;5012506;28;20399;-69
2021/12/21 13:59:57;;;;;;;5.13;1.95;;;22.70;42.70;;;;;;5025946;28;20029;-67